America, Illinois
Current Conditions -  °F | °C
As of 4:55 PM on Saturday 25 Oct 2014 (Local Time) from KCIR Reporting Station
Clear Clear  
Wind Chill: 82°   Ceiling: Unl
Heat Index: 82°   Visibility: 10mi
Dew Point: 57°   Wind: 5mph
Humidity: 42%   Direction: 290°WNW
Pressure: 30"   Gusts: NA
Location:  37.1575°N, 89.1781°W
Report Text: KCIR 252155Z AUTO 29004KT 10SM CLR 28/14 A3000 RMK AO2 T02800139
Loading
Personal Weather Stations






























Interactive Weather Map
Tropical Storm Tracking
New forecast layout! Learn more

10-Day Weather Forecast

Advertisements
Track Severe Weather on mobile